createdAt,value
2022-10-25T00:01:24.926Z,0.421
2022-10-25T00:03:25.974Z,1.263
2022-10-25T00:05:27.122Z,0.982
2022-10-25T00:09:29.309Z,0.842
2022-10-25T00:11:31.125Z,0
2022-10-25T00:13:32.090Z,0
2022-10-25T00:15:33.889Z,0
2022-10-25T00:17:35.289Z,0
2022-10-25T00:19:36.494Z,0
2022-10-25T00:21:37.558Z,0.842
2022-10-25T00:23:38.896Z,0.14
2022-10-25T00:25:40.405Z,0
2022-10-25T00:27:41.394Z,0
2022-10-25T00:29:43.167Z,0
2022-10-25T00:31:44.073Z,0
2022-10-25T00:33:45.206Z,0.14
2022-10-25T00:35:46.622Z,0.702
2022-10-25T00:37:47.696Z,0.561
2022-10-25T00:39:49.116Z,0.14
2022-10-25T00:41:50.533Z,1.684
2022-10-25T00:43:52.171Z,2.246
2022-10-25T00:45:53.468Z,1.404
2022-10-25T00:47:55.150Z,0.14
2022-10-25T00:49:56.875Z,0
2022-10-25T00:51:58.422Z,4.071
2022-10-25T00:53:59.876Z,2.527
2022-10-25T00:58:02.300Z,2.667
2022-10-25T01:00:03.885Z,1.965
2022-10-25T01:02:05.079Z,2.386
2022-10-25T01:04:06.801Z,1.263
2022-10-25T01:08:09.739Z,0.982
2022-10-25T01:10:11.324Z,2.246
2022-10-25T01:12:12.299Z,0.842
2022-10-25T01:14:13.951Z,3.65
2022-10-25T01:16:15.471Z,1.123
2022-10-25T01:18:16.890Z,0.842
2022-10-25T01:20:17.817Z,0
2022-10-25T01:22:19.066Z,0
2022-10-25T01:24:20.364Z,0
2022-10-25T01:26:21.943Z,3.65
2022-10-25T01:28:23.268Z,1.123
2022-10-25T01:30:25.029Z,0.28
2022-10-25T01:32:26.189Z,0.421
2022-10-25T01:34:27.416Z,0
2022-10-25T01:36:29.178Z,0
2022-10-25T01:40:31.521Z,0
2022-10-25T01:42:32.829Z,0
2022-10-25T01:44:34.282Z,0
2022-10-25T01:46:36.114Z,0
2022-10-25T01:50:39.654Z,0
2022-10-25T01:52:41.189Z,0
2022-10-25T01:54:42.817Z,0
2022-10-25T01:56:44.576Z,0
2022-10-25T01:58:45.702Z,0
2022-10-25T02:00:47.064Z,0.28
2022-10-25T02:02:48.413Z,0.14
2022-10-25T02:04:49.631Z,0
2022-10-25T02:06:51.388Z,0
2022-10-25T02:08:52.437Z,0.561
2022-10-25T02:10:53.997Z,0.702
2022-10-25T02:12:55.549Z,0.28
2022-10-25T02:14:56.894Z,0
2022-10-25T02:16:58.617Z,0.14
2022-10-25T02:19:00.097Z,0
2022-10-25T02:19:43.912Z,0
2022-10-25T02:23:47.196Z,0.28
2022-10-25T02:27:50.833Z,0
2022-10-25T02:29:51.852Z,0
2022-10-25T02:31:53.762Z,0
2022-10-25T02:33:54.712Z,0.561
2022-10-25T02:35:56.259Z,0
2022-10-25T02:37:57.177Z,0
2022-10-25T02:41:59.585Z,0
2022-10-25T02:48:03.171Z,0
2022-10-25T02:50:04.361Z,0
2022-10-25T02:52:05.794Z,0
2022-10-25T02:54:07.264Z,0
2022-10-25T02:56:08.441Z,0.982
2022-10-25T02:58:09.438Z,0
2022-10-25T03:00:10.423Z,0
2022-10-25T03:02:11.540Z,0
2022-10-25T03:04:12.563Z,0
2022-10-25T03:06:14.089Z,0
2022-10-25T03:08:15.432Z,0
2022-10-25T03:10:16.924Z,0
2022-10-25T03:14:20.282Z,0
2022-10-25T03:16:21.772Z,0
2022-10-25T03:18:22.680Z,0
2022-10-25T03:20:24.143Z,0
2022-10-25T03:22:25.666Z,0
2022-10-25T03:24:26.739Z,0
2022-10-25T03:26:27.895Z,0
2022-10-25T03:28:29.428Z,0
2022-10-25T03:30:30.709Z,2.527
2022-10-25T03:32:32.155Z,0.842
2022-10-25T03:34:33.634Z,0
2022-10-25T03:36:35.491Z,0.28
2022-10-25T03:38:36.654Z,0
2022-10-25T03:40:38.379Z,0.14
2022-10-25T03:42:39.866Z,0
2022-10-25T03:44:40.903Z,0.702
2022-10-25T03:46:41.953Z,2.386
2022-10-25T03:48:43.508Z,1.263
2022-10-25T03:50:45.151Z,0.28
2022-10-25T03:54:47.996Z,0
2022-10-25T03:56:49.120Z,0
2022-10-25T03:58:50.369Z,0
2022-10-25T04:00:51.945Z,0
2022-10-25T04:02:56.038Z,0
2022-10-25T04:04:55.651Z,0
2022-10-25T04:06:57.265Z,0
2022-10-25T04:08:58.819Z,0
2022-10-25T04:13:01.904Z,0
2022-10-25T04:15:03.212Z,0
2022-10-25T04:17:04.591Z,0
2022-10-25T04:19:06.470Z,0
2022-10-25T04:21:07.884Z,0
2022-10-25T04:27:12.452Z,0
2022-10-25T04:29:14.202Z,0
2022-10-25T04:31:16.013Z,0
2022-10-25T04:33:17.002Z,0
2022-10-25T04:35:18.102Z,0
2022-10-25T04:37:19.646Z,0
2022-10-25T04:39:21.092Z,0
2022-10-25T04:41:22.466Z,0
2022-10-25T04:43:23.505Z,0
2022-10-25T04:45:24.645Z,0
2022-10-25T04:47:26.274Z,0
2022-10-25T04:49:27.458Z,0
2022-10-25T04:51:28.519Z,0
2022-10-25T04:53:29.561Z,0
2022-10-25T04:55:30.452Z,0
2022-10-25T04:57:32.319Z,0
2022-10-25T04:59:33.534Z,0
2022-10-25T05:01:35.071Z,0
2022-10-25T05:03:36.327Z,0
2022-10-25T05:05:37.251Z,0
2022-10-25T05:07:38.462Z,0
2022-10-25T05:09:40.816Z,0
2022-10-25T05:11:40.946Z,0
2022-10-25T05:13:42.218Z,0
2022-10-25T05:15:43.259Z,0
2022-10-25T05:17:44.730Z,0
2022-10-25T05:19:45.816Z,0
2022-10-25T05:21:47.610Z,1.404
2022-10-25T05:23:48.722Z,1.404
2022-10-25T05:25:50.473Z,0
2022-10-25T05:27:52.355Z,0
2022-10-25T05:29:53.837Z,0
2022-10-25T05:31:55.318Z,0
2022-10-25T05:33:56.397Z,0
2022-10-25T05:35:57.367Z,0
2022-10-25T05:37:58.923Z,0
2022-10-25T05:40:00.615Z,0
2022-10-25T05:42:02.266Z,0
2022-10-25T05:44:03.527Z,0
2022-10-25T05:46:04.741Z,0
2022-10-25T05:48:05.695Z,0
2022-10-25T05:50:06.670Z,0
2022-10-25T05:52:07.936Z,0
2022-10-25T05:54:09.342Z,0
2022-10-25T05:56:10.596Z,0
2022-10-25T05:58:12.449Z,0
2022-10-25T06:00:14.184Z,0
2022-10-25T06:02:15.982Z,0
2022-10-25T06:04:17.327Z,0
2022-10-25T06:06:19.109Z,0
2022-10-25T06:08:20.560Z,0
2022-10-25T06:10:22.360Z,0
2022-10-25T06:12:23.657Z,0
2022-10-25T06:14:24.757Z,0
2022-10-25T06:16:34.114Z,0
2022-10-25T06:18:27.244Z,0
2022-10-25T06:20:28.500Z,0
2022-10-25T06:22:29.622Z,0.702
2022-10-25T06:24:30.838Z,0
2022-10-25T06:26:32.075Z,0
2022-10-25T06:28:33.792Z,0
2022-10-25T06:30:35.285Z,0
2022-10-25T06:32:36.686Z,0
2022-10-25T06:34:38.188Z,0
2022-10-25T06:36:39.391Z,0
2022-10-25T06:38:41.012Z,0
2022-10-25T06:40:42.586Z,0
2022-10-25T06:42:44.108Z,0
2022-10-25T06:44:45.142Z,0
2022-10-25T06:47:15.727Z,0
2022-10-25T06:50:51.333Z,0
2022-10-25T06:52:51.149Z,0
2022-10-25T06:54:52.285Z,0
2022-10-25T06:56:53.751Z,0
2022-10-25T07:00:56.842Z,0
2022-10-25T07:02:58.550Z,0
2022-10-25T07:04:59.443Z,0
2022-10-25T07:07:01.272Z,0
2022-10-25T07:09:02.859Z,0
2022-10-25T07:11:04.121Z,0.28
2022-10-25T07:13:05.678Z,1.263
2022-10-25T07:15:07.067Z,1.965
2022-10-25T07:17:08.857Z,0.702
2022-10-25T07:19:10.705Z,0.421
2022-10-25T07:21:11.866Z,1.544
2022-10-25T07:23:12.955Z,0.421
2022-10-25T07:25:14.740Z,7.3
2022-10-25T07:27:15.990Z,2.808
2022-10-25T07:29:17.215Z,2.386
2022-10-25T07:31:18.234Z,2.948
2022-10-25T07:33:19.858Z,2.106
2022-10-25T07:35:20.749Z,1.825
2022-10-25T07:37:21.598Z,1.684
2022-10-25T07:39:22.668Z,4.071
2022-10-25T07:41:24.421Z,0.561
2022-10-25T07:43:25.858Z,3.088
2022-10-25T07:45:27.703Z,1.123
2022-10-25T07:47:28.554Z,0.702
2022-10-25T07:49:29.395Z,0.28
2022-10-25T07:51:30.565Z,0
2022-10-25T07:53:32.302Z,0
2022-10-25T07:55:42.024Z,0
2022-10-25T07:57:35.376Z,0.28
2022-10-25T07:59:37.069Z,0
2022-10-25T08:01:38.164Z,0.561
2022-10-25T08:03:39.076Z,0.14
2022-10-25T08:05:40.644Z,0
2022-10-25T08:07:42.473Z,0
2022-10-25T08:09:43.581Z,0
2022-10-25T08:11:44.680Z,0
2022-10-25T08:13:45.732Z,0
2022-10-25T08:15:47.242Z,0.14
2022-10-25T08:17:49.404Z,1.684
2022-10-25T08:19:51.396Z,2.948
2022-10-25T08:21:52.223Z,0.982
2022-10-25T08:23:53.318Z,2.246
2022-10-25T08:25:55.026Z,1.404
2022-10-25T08:27:56.843Z,1.684
2022-10-25T08:32:00.179Z,2.527
2022-10-25T08:34:01.638Z,4.914
2022-10-25T08:36:03.285Z,3.79
2022-10-25T08:38:04.886Z,3.369
2022-10-25T08:42:07.871Z,4.212
2022-10-25T08:44:08.924Z,3.088
2022-10-25T08:46:09.956Z,2.948
2022-10-25T08:48:11.149Z,3.79
2022-10-25T08:50:12.032Z,7.3
2022-10-25T08:52:16.626Z,4.492
2022-10-25T08:54:14.935Z,3.65
2022-10-25T08:56:17.354Z,6.598
2022-10-25T08:58:17.806Z,0.702
2022-10-25T09:00:19.139Z,5.194
2022-10-25T09:02:20.851Z,4.352
2022-10-25T09:04:22.236Z,6.739
2022-10-25T09:05:05.950Z,4.773
2022-10-25T09:07:07.445Z,5.616
2022-10-25T09:09:08.745Z,4.773
2022-10-25T09:11:10.498Z,1.684
2022-10-25T09:13:12.027Z,5.194
2022-10-25T09:15:13.029Z,4.352
2022-10-25T09:17:13.999Z,4.492
2022-10-25T09:19:14.985Z,4.633
2022-10-25T09:21:21.452Z,4.492
2022-10-25T09:23:17.357Z,8.564
2022-10-25T09:27:20.574Z,6.318
2022-10-25T09:29:22.050Z,3.229
2022-10-25T09:31:23.009Z,9.406
2022-10-25T09:33:23.915Z,7.16
2022-10-25T09:35:25.507Z,5.335
2022-10-25T09:37:26.724Z,1.825
2022-10-25T09:39:28.172Z,6.739
2022-10-25T09:41:29.770Z,7.581
2022-10-25T09:43:30.789Z,7.16
2022-10-25T09:45:31.935Z,6.598
2022-10-25T09:47:33.482Z,10.81
2022-10-25T09:49:34.714Z,8.564
2022-10-25T09:51:36.414Z,2.808
2022-10-25T09:53:37.415Z,5.616
2022-10-25T09:55:38.865Z,9.266
2022-10-25T09:57:39.994Z,2.246
2022-10-25T09:59:41.005Z,3.229
2022-10-25T10:01:41.928Z,4.492
2022-10-25T10:03:43.776Z,3.65
2022-10-25T10:05:44.497Z,5.194
2022-10-25T10:07:46.131Z,8.704
2022-10-25T10:09:47.331Z,3.931
2022-10-25T10:11:49.127Z,5.896
2022-10-25T10:13:50.065Z,11.653
2022-10-25T10:17:52.393Z,7.441
2022-10-25T10:19:53.274Z,10.53
2022-10-25T10:21:54.707Z,4.773
2022-10-25T10:23:55.664Z,5.054
2022-10-25T10:25:56.649Z,5.616
2022-10-25T10:27:58.267Z,3.51
2022-10-25T10:30:00.320Z,2.948
2022-10-25T10:32:01.892Z,1.404
2022-10-25T10:34:03.449Z,3.088
2022-10-25T10:36:04.394Z,3.369
2022-10-25T10:38:06.091Z,4.633
2022-10-25T10:40:07.615Z,1.684
2022-10-25T10:42:11.599Z,6.037
2022-10-25T10:44:10.434Z,2.808
2022-10-25T10:46:11.668Z,1.965
2022-10-25T10:50:14.027Z,5.475
2022-10-25T10:52:15.037Z,4.352
2022-10-25T10:54:15.868Z,7.16
2022-10-25T10:56:17.196Z,6.458
2022-10-25T11:00:20.599Z,2.246
2022-10-25T11:02:22.494Z,3.79
2022-10-25T11:04:26.075Z,4.914
2022-10-25T11:06:25.363Z,4.633
2022-10-25T11:08:26.834Z,4.914
2022-10-25T11:10:28.488Z,4.633
2022-10-25T11:12:29.988Z,8.704
2022-10-25T11:14:31.744Z,2.527
2022-10-25T11:16:33.460Z,4.492
2022-10-25T11:18:35.050Z,5.896
2022-10-25T11:20:36.559Z,4.914
2022-10-25T11:22:38.289Z,0.842
2022-10-25T11:24:39.338Z,2.246
2022-10-25T11:26:40.330Z,6.177
2022-10-25T11:28:41.610Z,7.722
2022-10-25T11:30:42.714Z,6.598
2022-10-25T11:32:44.527Z,7.16
2022-10-25T11:34:45.189Z,5.194
2022-10-25T11:36:46.591Z,4.352
2022-10-25T11:38:48.158Z,3.369
2022-10-25T11:40:48.999Z,5.335
2022-10-25T11:42:50.923Z,3.79
2022-10-25T11:44:52.260Z,3.65
2022-10-25T11:46:53.494Z,1.123
2022-10-25T11:48:55.069Z,3.79
2022-10-25T11:50:56.812Z,6.037
2022-10-25T11:52:57.967Z,3.369
2022-10-25T11:54:59.390Z,3.51
2022-10-25T11:57:00.816Z,2.106
2022-10-25T11:59:02.629Z,0.421
2022-10-25T12:01:03.386Z,2.527
2022-10-25T12:03:04.963Z,1.825
2022-10-25T12:05:06.603Z,3.369
2022-10-25T12:07:08.302Z,5.335
2022-10-25T12:09:09.970Z,7.722
2022-10-25T12:11:12.726Z,10.53
2022-10-25T12:13:13.752Z,5.194
2022-10-25T12:15:15.061Z,4.914
2022-10-25T12:17:16.852Z,3.51
2022-10-25T12:19:18.446Z,8.143
2022-10-25T12:21:20.170Z,7.722
2022-10-25T12:23:21.161Z,5.054
2022-10-25T12:25:22.467Z,2.948
2022-10-25T12:27:23.548Z,4.633
2022-10-25T12:29:24.491Z,4.773
2022-10-25T12:31:26.252Z,5.756
2022-10-25T12:33:27.330Z,4.352
2022-10-25T12:35:29.410Z,7.3
2022-10-25T12:37:30.526Z,5.896
2022-10-25T12:39:32.055Z,4.071
2022-10-25T12:41:33.734Z,1.825
2022-10-25T12:43:35.344Z,4.633
2022-10-25T12:45:37.012Z,8.283
2022-10-25T12:47:38.788Z,5.616
2022-10-25T12:49:40.530Z,5.194
2022-10-25T12:51:41.682Z,4.071
2022-10-25T12:53:42.952Z,3.51
2022-10-25T12:55:43.805Z,3.65
2022-10-25T12:57:47.462Z,8.564
2022-10-25T12:59:46.332Z,5.756
2022-10-25T13:01:48.439Z,4.492
2022-10-25T13:03:49.456Z,6.177
2022-10-25T13:05:50.811Z,7.441
2022-10-25T13:07:52.002Z,2.808
2022-10-25T13:09:53.731Z,8.564
2022-10-25T13:13:57.115Z,1.404
2022-10-25T13:15:58.582Z,4.914
2022-10-25T13:17:59.399Z,6.318
2022-10-25T13:20:00.509Z,8.845
2022-10-25T13:24:03.164Z,5.616
2022-10-25T13:26:04.118Z,2.527
2022-10-25T13:28:06.024Z,4.352
2022-10-25T13:30:07.703Z,2.386
2022-10-25T13:32:10.372Z,3.369
2022-10-25T13:34:09.786Z,4.492
2022-10-25T13:36:11.481Z,7.862
2022-10-25T13:38:13.197Z,7.16
2022-10-25T13:40:14.149Z,3.229
2022-10-25T13:42:15.785Z,2.808
2022-10-25T13:44:17.239Z,2.386
2022-10-25T13:46:18.279Z,5.194
2022-10-25T13:48:19.629Z,4.633
2022-10-25T13:50:22.069Z,8.704
2022-10-25T13:52:23.844Z,4.212
2022-10-25T13:56:26.191Z,6.879
2022-10-25T13:58:31.257Z,3.229
2022-10-25T14:00:28.584Z,3.229
2022-10-25T14:02:30.179Z,4.633
2022-10-25T14:06:33.080Z,5.054
2022-10-25T14:08:34.535Z,5.335
2022-10-25T14:10:35.600Z,7.722
2022-10-25T14:12:37.044Z,8.985
2022-10-25T14:14:38.311Z,4.212
2022-10-25T14:16:39.871Z,2.808
2022-10-25T14:18:41.218Z,2.948
2022-10-25T14:20:42.848Z,4.633
2022-10-25T14:22:44.499Z,0.842
2022-10-25T14:24:46.058Z,0.842
2022-10-25T14:26:47.726Z,6.037
2022-10-25T14:28:49.227Z,6.037
2022-10-25T14:30:50.416Z,2.527
2022-10-25T14:32:52.094Z,4.352
2022-10-25T14:34:53.851Z,5.054
2022-10-25T14:36:54.945Z,5.054
2022-10-25T14:38:56.452Z,4.633
2022-10-25T14:40:58.149Z,0.28
2022-10-25T14:42:59.676Z,4.071
2022-10-25T14:45:00.797Z,6.177
2022-10-25T14:47:01.776Z,6.598
2022-10-25T14:49:03.046Z,4.914
2022-10-25T14:51:04.267Z,4.633
2022-10-25T14:53:05.392Z,4.633
2022-10-25T14:55:06.479Z,7.3
2022-10-25T14:57:07.571Z,3.088
2022-10-25T14:59:08.668Z,5.616
2022-10-25T15:01:10.029Z,4.071
2022-10-25T15:03:11.271Z,0.982
2022-10-25T15:05:12.731Z,1.263
2022-10-25T15:07:14.210Z,3.65
2022-10-25T15:09:41.601Z,2.246
2022-10-25T15:11:16.345Z,1.825
2022-10-25T15:13:17.622Z,0
2022-10-25T15:15:19.309Z,1.544
2022-10-25T15:17:20.608Z,0.702
2022-10-25T15:19:21.704Z,1.544
2022-10-25T15:21:22.707Z,3.088
2022-10-25T15:23:23.929Z,1.123
2022-10-25T15:25:25.350Z,0.28
2022-10-25T15:27:27.082Z,0.28
2022-10-25T15:29:28.276Z,2.106
2022-10-25T15:33:31.246Z,0.982
2022-10-25T15:37:33.092Z,0
2022-10-25T15:39:34.243Z,1.404
2022-10-25T15:41:35.643Z,0
2022-10-25T15:43:37.384Z,0
2022-10-25T15:45:38.769Z,0
2022-10-25T15:47:39.769Z,0
2022-10-25T15:49:41.116Z,0
2022-10-25T15:51:42.137Z,0
2022-10-25T15:52:25.917Z,0
2022-10-25T15:54:27.237Z,0
2022-10-25T15:56:28.319Z,0
2022-10-25T15:58:29.726Z,0
2022-10-25T16:00:31.332Z,1.404
2022-10-25T16:02:32.954Z,0.982
2022-10-25T16:04:34.238Z,0
2022-10-25T16:06:36.066Z,0
2022-10-25T16:08:37.720Z,0
2022-10-25T16:10:39.413Z,0
2022-10-25T16:12:40.324Z,0
2022-10-25T16:14:41.253Z,0.14
2022-10-25T16:16:42.358Z,0
2022-10-25T16:18:44.074Z,0
2022-10-25T16:20:45.429Z,0
2022-10-25T16:22:46.688Z,0.14
2022-10-25T16:24:48.249Z,0.982
2022-10-25T16:26:49.965Z,0
2022-10-25T16:28:51.412Z,1.123
2022-10-25T16:30:53.008Z,2.527
2022-10-25T16:32:54.664Z,0.28
2022-10-25T16:34:56.467Z,0.14
2022-10-25T16:36:57.844Z,0.14
2022-10-25T16:38:59.092Z,0.14
2022-10-25T16:41:00.616Z,0
2022-10-25T16:43:01.811Z,0
2022-10-25T16:45:03.335Z,0
2022-10-25T16:47:05.153Z,0
2022-10-25T16:49:06.651Z,0
2022-10-25T16:51:08.345Z,0
2022-10-25T16:53:09.535Z,0
2022-10-25T16:55:10.968Z,0.28
2022-10-25T16:57:12.681Z,2.246
2022-10-25T16:59:13.828Z,0
2022-10-25T17:01:15.406Z,0.28
2022-10-25T17:03:16.575Z,0.14
2022-10-25T17:05:18.057Z,0
2022-10-25T17:07:19.206Z,0.842
2022-10-25T17:09:20.496Z,0
2022-10-25T17:11:21.748Z,0
2022-10-25T17:13:23.509Z,0
2022-10-25T17:15:25.275Z,0
2022-10-25T17:17:27.082Z,0
2022-10-25T17:19:28.823Z,0
2022-10-25T17:21:30.658Z,0
2022-10-25T17:23:31.619Z,0
2022-10-25T17:25:32.949Z,0
2022-10-25T17:27:33.938Z,0
2022-10-25T17:29:34.962Z,0
2022-10-25T17:31:36.035Z,0
2022-10-25T17:33:37.000Z,0
2022-10-25T17:35:38.169Z,0
2022-10-25T17:37:39.539Z,0
2022-10-25T17:39:41.233Z,0
2022-10-25T17:41:43.090Z,0
2022-10-25T17:43:44.380Z,0
2022-10-25T17:45:45.971Z,0
2022-10-25T17:47:47.687Z,0
2022-10-25T17:49:48.807Z,0
2022-10-25T17:51:50.523Z,0
2022-10-25T17:55:53.319Z,0
2022-10-25T17:57:55.164Z,0
2022-10-25T17:59:56.625Z,1.825
2022-10-25T18:01:57.702Z,0
2022-10-25T18:06:00.937Z,0
2022-10-25T18:08:02.179Z,0
2022-10-25T18:10:04.038Z,0
2022-10-25T18:12:05.796Z,0
2022-10-25T18:14:06.941Z,0
2022-10-25T18:16:08.173Z,0
2022-10-25T18:18:09.976Z,0.561
2022-10-25T18:20:11.907Z,0.702
2022-10-25T18:22:13.100Z,0
2022-10-25T18:24:14.907Z,0
2022-10-25T18:26:16.262Z,0
2022-10-25T18:28:17.817Z,1.965
2022-10-25T18:30:19.545Z,0
2022-10-25T18:32:21.096Z,0.28
2022-10-25T18:34:22.126Z,0
2022-10-25T18:38:25.555Z,0
2022-10-25T18:40:27.463Z,0
2022-10-25T18:42:28.516Z,0
2022-10-25T18:44:29.984Z,0
2022-10-25T18:48:32.137Z,0
2022-10-25T18:50:33.264Z,0
2022-10-25T18:52:34.794Z,0
2022-10-25T18:54:36.588Z,0
2022-10-25T18:56:37.694Z,0
2022-10-25T18:58:38.783Z,0
2022-10-25T19:00:40.027Z,0
2022-10-25T19:02:41.519Z,0
2022-10-25T19:04:43.180Z,0
2022-10-25T19:06:44.498Z,0
2022-10-25T19:08:46.023Z,0
2022-10-25T19:10:47.042Z,0
2022-10-25T19:12:48.530Z,0
2022-10-25T19:14:50.182Z,0
2022-10-25T19:16:51.395Z,0
2022-10-25T19:18:52.509Z,0
2022-10-25T19:20:53.516Z,0
2022-10-25T19:22:55.419Z,0
2022-10-25T19:26:58.850Z,2.106
2022-10-25T19:29:00.486Z,0.561
2022-10-25T19:31:02.118Z,0
2022-10-25T19:33:03.943Z,0
2022-10-25T19:35:05.337Z,0
2022-10-25T19:37:07.131Z,0
2022-10-25T19:39:08.348Z,0
2022-10-25T19:41:10.111Z,0
2022-10-25T19:43:11.280Z,0
2022-10-25T19:45:12.995Z,0
2022-10-25T19:47:14.367Z,0
2022-10-25T19:49:15.936Z,0
2022-10-25T19:51:17.223Z,0
2022-10-25T19:53:18.982Z,0
2022-10-25T19:55:19.961Z,0
2022-10-25T19:57:21.771Z,0
2022-10-25T19:59:23.224Z,0
2022-10-25T20:01:24.961Z,0
2022-10-25T20:03:26.102Z,0
2022-10-25T20:05:27.782Z,0
2022-10-25T20:07:28.823Z,0
2022-10-25T20:09:29.999Z,0
2022-10-25T20:11:31.343Z,0
2022-10-25T20:13:40.856Z,0
2022-10-25T20:15:34.227Z,0
2022-10-25T20:17:35.372Z,0
2022-10-25T20:19:36.475Z,0
2022-10-25T20:21:38.332Z,0
2022-10-25T20:23:40.241Z,0
2022-10-25T20:25:41.441Z,0
2022-10-25T20:27:42.774Z,0
2022-10-25T20:29:51.922Z,0
2022-10-25T20:31:45.160Z,0
2022-10-25T20:33:46.833Z,0
2022-10-25T20:35:47.828Z,0
2022-10-25T20:37:49.391Z,0
2022-10-25T20:39:50.920Z,0
2022-10-25T20:41:52.519Z,0
2022-10-25T20:43:54.426Z,0
2022-10-25T20:45:55.815Z,0
2022-10-25T20:47:56.865Z,0
2022-10-25T20:49:58.091Z,0
2022-10-25T20:51:59.889Z,0
2022-10-25T20:54:01.466Z,0
2022-10-25T20:56:03.341Z,0
2022-10-25T20:58:04.838Z,0
2022-10-25T21:00:06.363Z,0
2022-10-25T21:02:08.052Z,0
2022-10-25T21:04:09.679Z,0
2022-10-25T21:06:11.133Z,0
2022-10-25T21:08:12.447Z,0
2022-10-25T21:14:16.254Z,0
2022-10-25T21:16:17.561Z,0
2022-10-25T21:18:18.761Z,0
2022-10-25T21:20:20.362Z,0
2022-10-25T21:22:22.300Z,0
2022-10-25T21:24:23.990Z,0
2022-10-25T21:26:25.489Z,0
2022-10-25T21:28:26.990Z,0
2022-10-25T21:30:28.088Z,0
2022-10-25T21:32:29.150Z,0
2022-10-25T21:34:30.502Z,0
2022-10-25T21:36:32.198Z,0
2022-10-25T21:38:33.502Z,0
2022-10-25T21:40:35.261Z,0
2022-10-25T21:44:37.857Z,0
2022-10-25T21:46:38.793Z,0
2022-10-25T21:48:40.378Z,0
2022-10-25T21:50:41.420Z,0
2022-10-25T21:52:42.539Z,0
2022-10-25T21:56:45.344Z,0
2022-10-25T21:58:46.579Z,0
2022-10-25T22:00:47.665Z,0
2022-10-25T22:02:49.080Z,0
2022-10-25T22:06:51.912Z,0
2022-10-25T22:08:53.664Z,0
2022-10-25T22:10:55.222Z,0
2022-10-25T22:12:56.319Z,0
2022-10-25T22:16:59.308Z,0
2022-10-25T22:19:01.150Z,0
2022-10-25T22:21:02.772Z,0
2022-10-25T22:23:04.000Z,0
2022-10-25T22:27:07.113Z,0
2022-10-25T22:29:08.866Z,0
2022-10-25T22:31:10.664Z,0
2022-10-25T22:33:12.591Z,0
2022-10-25T22:35:14.261Z,0
2022-10-25T22:37:59.687Z,0
2022-10-25T22:40:00.657Z,0
2022-10-25T22:44:03.803Z,0
2022-10-25T22:46:05.473Z,0
2022-10-25T22:48:06.473Z,0
2022-10-25T22:50:08.241Z,0
2022-10-25T22:52:10.017Z,0
2022-10-25T22:54:11.743Z,0
2022-10-25T22:56:12.798Z,0
2022-10-25T22:58:13.826Z,0
2022-10-25T23:00:15.814Z,0
2022-10-25T23:04:18.885Z,0
2022-10-25T23:06:20.547Z,0
2022-10-25T23:08:21.858Z,0
2022-10-25T23:10:23.236Z,0
2022-10-25T23:12:24.672Z,0
2022-10-25T23:14:26.332Z,0
2022-10-25T23:16:27.589Z,0
2022-10-25T23:18:28.884Z,0
2022-10-25T23:20:30.230Z,0
2022-10-25T23:22:31.825Z,0
2022-10-25T23:24:33.117Z,0
2022-10-25T23:26:34.443Z,0
2022-10-25T23:28:36.333Z,0
2022-10-25T23:30:37.779Z,0
2022-10-25T23:32:47.506Z,0
2022-10-25T23:34:40.997Z,0
2022-10-25T23:36:42.115Z,0
2022-10-25T23:38:43.345Z,0
2022-10-25T23:40:44.698Z,0
2022-10-25T23:42:46.405Z,0
2022-10-25T23:44:48.371Z,0
2022-10-25T23:46:49.836Z,0
2022-10-25T23:48:51.205Z,0
2022-10-25T23:50:52.916Z,0
2022-10-25T23:52:54.296Z,0
2022-10-25T23:54:56.888Z,0
2022-10-25T23:56:57.578Z,0
2022-10-25T23:58:58.889Z,0
